LIRZ/PEG METAR and TAF weather

Enter ICAO airport designator
Station Type Date Time Source
LIRZ METAR 2021/09/28 16:20 UTC NOAA

LIRZ 281620Z AUTO 01010KT 9999 NCD 25/14 Q1017


Station Type Date Time Source
LIRZ Decoded METAR 2021/09/28 16:20 UTC NOAA

Perugia, Italy (LIRZ) 43-05N 012-30E 205M
Sep 28, 2021 - 12:20 PM EDT / 2021.09.28 1620 UTC
Wind: from the N (010 degrees) at 12 MPH (10 KT):0
Visibility: greater than 7 mile(s):0
Temperature: 77 F (25 C)
Dew Point: 57 F (14 C)
Relative Humidity: 50%
Pressure (altimeter): 30.03 in. Hg (1017 hPa)
ob: LIRZ 281620Z AUTO 01010KT 9999 NCD 25/14 Q1017
cycle: 16

Station Type Date Time Source
LIRZ TAF 2021/09/28 12:21 UTC NOAA

TAF LIRZ 281100Z 2812/2912 04016KT 9999 SCT040
BECMG 2816/2818 VRB05KT

Example: see airport list